Thorolf Kveldulfsoen — LHNG — position and weather

sailwx.info

Track history (hours):
 
Tides and Currents Weather Stations Pressure Air Temp Water Temp Dewpoint Dewpoint Depression Visibility Wind Speed Wind Dir Waves Ship Positions

Thorolf Kveldulfsoen

Last reported at 2014-Sep-18 06:23 UTC. Time now 2014-Sep-18 07:44 UTC.
Position N 66°16' E 012°57'.

Length 29 m.

Type: High speed craft. MMSI: 257165600.

Date/timePositionNaut miles runAvg speedWind from/ knotsBaromVisibWave heightAir tempDewpointWater temp
2014-Sep-18 06:23N 66°16' E 012°57'1011.4
2014-Sep-18 05:33N 66°22' E 012°38'1514.6
2014-Sep-18 04:33N 66°30' E 012°07'5 2.6
2014-Sep-18 02:30N 66°35' E 012°13'0 0.0
2014-Sep-18 01:15N 66°35' E 012°13'0 0.0
2014-Sep-17 22:22N 66°35' E 012°13'0 0.0
2014-Sep-17 21:32N 66°35' E 012°13'0 0.0
2014-Sep-17 20:13N 66°35' E 012°13'5 8.1
2014-Sep-17 19:33N 66°30' E 012°09'1514.8
2014-Sep-17 18:33N 66°23' E 012°42'1616.3
2014-Sep-17 17:33N 66°34' E 012°12'1312.5
2014-Sep-17 16:33N 66°23' E 012°27'1311.6
2014-Sep-17 15:24N 66°21' E 012°60'9 3.2
2014-Sep-17 12:33N 66°26' E 012°41'1514.6
2014-Sep-17 11:33N 66°30' E 012°06'1515.1
2014-Sep-17 10:33N 66°23' E 012°39'9 2.2
2014-Sep-17 06:23N 66°17' E 012°57'911.6
2014-Sep-17 05:33N 66°22' E 012°38'1514.5
2014-Sep-17 04:33N 66°30' E 012°07'3 0.4
2014-Sep-16 19:33N 66°33' E 012°11'1615.8
2014-Sep-16 18:34N 66°23' E 012°40'1615.7
2014-Sep-16 17:33N 66°34' E 012°11'1711.8
2014-Sep-16 16:07N 66°23' E 012°45'712.3
2014-Sep-16 15:33N 66°20' E 013°00'16 1.9
2014-Sep-16 07:03N 66°06' E 012°43'1218.5
2014-Sep-16 06:23N 66°17' E 012°57'1011.5
2014-Sep-16 05:33N 66°22' E 012°38'1414.4
2014-Sep-16 04:34N 66°30' E 012°08'5 4.6
2014-Sep-16 03:26N 66°35' E 012°13'0 0.0
2014-Sep-15 23:20N 66°35' E 012°13'0 0.0
2014-Sep-15 20:23N 66°35' E 012°13'8 9.4
2014-Sep-15 19:33N 66°27' E 012°14'1110.7
2014-Sep-15 18:33N 66°22' E 012°38'1515.2
2014-Sep-15 17:33N 66°34' E 012°14'1212.5
2014-Sep-15 16:33N 66°23' E 012°26'1413.7
2014-Sep-15 15:33N 66°17' E 012°57'  
2014-Sep-13 08:17N 66°01' E 012°32'  
Track history (hours):
 
Tides and Currents Weather Stations Pressure Air Temp Water Temp Dewpoint Dewpoint Depression Visibility Wind Speed Wind Dir Waves Ship Positions

Thorolf Kveldulfsoen

Last reported at 2014-Sep-18 06:23 UTC. Time now 2014-Sep-18 07:44 UTC.
Position N 66°16' E 012°57'.

Length 29 m.

Type: High speed craft. MMSI: 257165600.

Date/timePositionNaut miles runAvg speedWind from/ knotsBaromVisibWave heightAir tempDewpointWater temp
2014-Sep-18 06:23N 66°16' E 012°57'1011.4
2014-Sep-18 05:33N 66°22' E 012°38'1514.6
2014-Sep-18 04:33N 66°30' E 012°07'5 2.6
2014-Sep-18 02:30N 66°35' E 012°13'0 0.0
2014-Sep-18 01:15N 66°35' E 012°13'0 0.0
2014-Sep-17 22:22N 66°35' E 012°13'0 0.0
2014-Sep-17 21:32N 66°35' E 012°13'0 0.0
2014-Sep-17 20:13N 66°35' E 012°13'5 8.1
2014-Sep-17 19:33N 66°30' E 012°09'1514.8
2014-Sep-17 18:33N 66°23' E 012°42'1616.3
2014-Sep-17 17:33N 66°34' E 012°12'1312.5
2014-Sep-17 16:33N 66°23' E 012°27'1311.6
2014-Sep-17 15:24N 66°21' E 012°60'9 3.2
2014-Sep-17 12:33N 66°26' E 012°41'1514.6
2014-Sep-17 11:33N 66°30' E 012°06'1515.1
2014-Sep-17 10:33N 66°23' E 012°39'9 2.2
2014-Sep-17 06:23N 66°17' E 012°57'911.6
2014-Sep-17 05:33N 66°22' E 012°38'1514.5
2014-Sep-17 04:33N 66°30' E 012°07'3 0.4
2014-Sep-16 19:33N 66°33' E 012°11'1615.8
2014-Sep-16 18:34N 66°23' E 012°40'1615.7
2014-Sep-16 17:33N 66°34' E 012°11'1711.8
2014-Sep-16 16:07N 66°23' E 012°45'712.3
2014-Sep-16 15:33N 66°20' E 013°00'16 1.9
2014-Sep-16 07:03N 66°06' E 012°43'1218.5
2014-Sep-16 06:23N 66°17' E 012°57'1011.5
2014-Sep-16 05:33N 66°22' E 012°38'1414.4
2014-Sep-16 04:34N 66°30' E 012°08'5 4.6
2014-Sep-16 03:26N 66°35' E 012°13'0 0.0
2014-Sep-15 23:20N 66°35' E 012°13'0 0.0
2014-Sep-15 20:23N 66°35' E 012°13'8 9.4
2014-Sep-15 19:33N 66°27' E 012°14'1110.7
2014-Sep-15 18:33N 66°22' E 012°38'1515.2
2014-Sep-15 17:33N 66°34' E 012°14'1212.5
2014-Sep-15 16:33N 66°23' E 012°26'1413.7
2014-Sep-15 15:33N 66°17' E 012°57'  
2014-Sep-13 08:17N 66°01' E 012°32'  

Dump ship's entire track history